createdAt,value
2022-08-02T00:00:03.559Z,4.25
2022-08-02T00:05:28.435Z,3.60
2022-08-02T00:10:32.407Z,4.30
2022-08-02T00:15:35.808Z,4.45
2022-08-02T00:20:40.809Z,4.78
2022-08-02T00:25:54.804Z,6.45
2022-08-02T00:30:59.523Z,3.40
2022-08-02T00:36:04.556Z,4.45
2022-08-02T00:41:13.966Z,8.32
2022-08-02T00:46:18.660Z,5.00
2022-08-02T00:51:23.434Z,3.17
2022-08-02T00:56:26.784Z,3.55
2022-08-02T01:01:54.603Z,5.80
2022-08-02T01:07:13.012Z,3.97
2022-08-02T01:12:17.634Z,3.22
2022-08-02T01:17:30.091Z,5.32
2022-08-02T01:23:02.969Z,3.95
2022-08-02T01:28:21.972Z,3.30
2022-08-02T01:33:29.594Z,5.00
2022-08-02T01:38:36.415Z,5.15
2022-08-02T01:43:43.473Z,3.40
2022-08-02T01:48:48.629Z,4.45
2022-08-02T01:53:52.651Z,5.63
2022-08-02T01:58:57.784Z,4.43
2022-08-02T02:04:02.594Z,6.72
2022-08-02T02:09:06.894Z,4.32
2022-08-02T02:14:13.721Z,4.50
2022-08-02T02:19:21.010Z,5.47
2022-08-02T02:24:24.892Z,4.78
2022-08-02T02:29:32.637Z,6.10
2022-08-02T02:34:40.330Z,6.28
2022-08-02T02:39:46.574Z,5.28
2022-08-02T02:44:53.516Z,6.75
2022-08-02T02:49:58.761Z,5.10
2022-08-02T02:55:03.146Z,6.15
2022-08-02T03:00:11.735Z,4.53
2022-08-02T03:05:16.804Z,4.43
2022-08-02T03:10:20.524Z,5.10
2022-08-02T03:15:27.906Z,7.60
2022-08-02T03:20:31.279Z,7.07
2022-08-02T03:25:34.727Z,5.47
2022-08-02T03:30:39.929Z,5.45
2022-08-02T03:35:45.105Z,8.25
2022-08-02T03:40:49.497Z,5.80
2022-08-02T03:45:56.691Z,6.22
2022-08-02T03:51:00.436Z,6.00
2022-08-02T03:56:05.154Z,7.15
2022-08-02T04:01:09.916Z,6.55
2022-08-02T04:06:13.818Z,7.78
2022-08-02T04:11:31.745Z,8.15
2022-08-02T04:16:41.735Z,8.15
2022-08-02T04:21:51.794Z,6.40
2022-08-02T04:27:01.114Z,6.90
2022-08-02T04:32:12.081Z,12.05
2022-08-02T04:37:15.797Z,6.88
2022-08-02T04:42:22.918Z,12.60
2022-08-02T04:48:02.377Z,9.68
2022-08-02T04:52:51.047Z,9.25
2022-08-02T04:58:04.071Z,10.65
2022-08-02T05:03:15.465Z,8.05
2022-08-02T05:08:19.018Z,10.10
2022-08-02T05:13:22.326Z,7.10
2022-08-02T05:18:28.484Z,8.55
2022-08-02T05:23:31.973Z,9.48
2022-08-02T05:28:36.792Z,9.60
2022-08-02T05:33:41.961Z,8.73
2022-08-02T05:38:49.659Z,10.93
2022-08-02T05:43:53.297Z,7.88
2022-08-02T05:48:58.216Z,8.73
2022-08-02T05:54:13.495Z,8.95
2022-08-02T05:59:27.113Z,9.77
2022-08-02T06:04:37.838Z,9.98
2022-08-02T06:09:44.383Z,7.65
2022-08-02T06:14:54.053Z,9.20
2022-08-02T06:20:02.084Z,10.82
2022-08-02T06:25:48.451Z,11.38
2022-08-02T06:30:31.507Z,10.23
2022-08-02T06:35:46.133Z,8.52
2022-08-02T06:45:53.968Z,10.80
2022-08-02T06:50:58.737Z,14.13
2022-08-02T06:56:02.124Z,7.20
2022-08-02T07:01:07.392Z,10.35
2022-08-02T07:06:12.193Z,11.13
2022-08-02T07:11:15.514Z,19.42
2022-08-02T07:16:18.915Z,8.55
2022-08-02T07:21:56.844Z,7.82
2022-08-02T07:27:09.676Z,9.60
2022-08-02T07:32:11.460Z,8.48
2022-08-02T07:37:36.081Z,6.05
2022-08-02T07:42:40.428Z,7.93
2022-08-02T07:47:45.057Z,5.45
2022-08-02T07:52:53.687Z,4.50
2022-08-02T07:58:01.207Z,5.00
2022-08-02T08:03:04.986Z,11.63
2022-08-02T08:08:16.718Z,4.90
2022-08-02T08:13:20.966Z,3.55
2022-08-02T08:18:24.442Z,3.65
2022-08-02T08:23:29.202Z,6.20
2022-08-02T08:28:32.784Z,5.82
2022-08-02T08:33:36.372Z,8.80
2022-08-02T08:38:41.245Z,4.32
2022-08-02T08:43:44.611Z,3.22
2022-08-02T08:48:51.761Z,3.88
2022-08-02T08:54:00.276Z,6.03
2022-08-02T08:59:05.429Z,3.78
2022-08-02T09:04:09.135Z,6.22
2022-08-02T09:09:14.554Z,3.60
2022-08-02T09:14:28.998Z,3.28
2022-08-02T09:19:33.416Z,6.47
2022-08-02T09:24:46.193Z,5.38
2022-08-02T09:30:12.367Z,3.83
2022-08-02T09:35:15.331Z,2.78
2022-08-02T09:40:37.213Z,2.15
2022-08-02T09:45:40.820Z,5.23
2022-08-02T09:50:46.909Z,3.95
2022-08-02T09:55:57.633Z,2.72
2022-08-02T10:01:01.627Z,2.92
2022-08-02T10:06:05.672Z,3.70
2022-08-02T10:11:10.579Z,2.38
2022-08-02T10:16:17.022Z,5.07
2022-08-02T10:21:24.457Z,3.22
2022-08-02T10:26:30.364Z,3.85
2022-08-02T10:31:39.530Z,3.25
2022-08-02T10:36:43.586Z,2.05
2022-08-02T10:41:50.331Z,6.10
2022-08-02T10:46:55.143Z,2.63
2022-08-02T10:52:07.258Z,2.95
2022-08-02T10:57:21.298Z,3.97
2022-08-02T11:02:39.679Z,10.45
2022-08-02T11:07:47.404Z,4.28
2022-08-02T11:13:07.252Z,6.45
2022-08-02T11:18:10.936Z,2.33
2022-08-02T11:23:44.723Z,2.70
2022-08-02T11:28:51.841Z,4.20
2022-08-02T11:33:56.000Z,4.82
2022-08-02T11:39:10.656Z,3.80
2022-08-02T11:44:15.478Z,2.17
2022-08-02T11:49:20.076Z,5.15
2022-08-02T11:54:28.515Z,1.83
2022-08-02T11:59:33.571Z,2.70
2022-08-02T12:04:37.876Z,3.03
2022-08-02T12:09:42.023Z,1.35
2022-08-02T12:14:46.976Z,2.47
2022-08-02T12:19:50.502Z,2.20
2022-08-02T12:24:55.862Z,2.05
2022-08-02T12:30:07.309Z,1.92
2022-08-02T12:35:13.810Z,2.05
2022-08-02T12:40:25.380Z,2.75
2022-08-02T12:45:41.181Z,2.13
2022-08-02T12:50:46.484Z,2.13
2022-08-02T12:56:02.238Z,1.92
2022-08-02T13:01:07.976Z,2.38
2022-08-02T13:06:41.104Z,3.15
2022-08-02T13:11:34.902Z,3.60
2022-08-02T13:16:39.833Z,1.63
2022-08-02T13:22:01.979Z,3.40
2022-08-02T13:27:08.601Z,4.75
2022-08-02T13:32:14.478Z,2.08
2022-08-02T13:37:18.473Z,3.08
2022-08-02T13:42:23.013Z,1.98
2022-08-02T13:47:36.342Z,2.85
2022-08-02T13:52:52.015Z,4.80
2022-08-02T13:57:55.754Z,3.75
2022-08-02T14:03:00.487Z,2.38
2022-08-02T14:08:03.973Z,3.08
2022-08-02T14:13:09.150Z,3.63
2022-08-02T14:18:15.375Z,1.90
2022-08-02T14:23:19.192Z,3.47
2022-08-02T14:28:43.769Z,2.70
2022-08-02T14:33:48.494Z,4.78
2022-08-02T14:38:51.851Z,4.30
2022-08-02T14:44:07.923Z,4.10
2022-08-02T14:49:14.599Z,4.63
2022-08-02T14:54:31.485Z,7.00
2022-08-02T14:59:34.785Z,2.45
2022-08-02T15:04:43.015Z,2.00
2022-08-02T15:09:47.255Z,4.97
2022-08-02T15:14:50.610Z,4.38
2022-08-02T15:20:00.127Z,1.40
2022-08-02T15:30:19.294Z,6.38
2022-08-02T15:35:25.185Z,2.47
2022-08-02T15:40:28.747Z,1.90
2022-08-02T15:45:32.198Z,1.73
2022-08-02T15:50:36.951Z,1.83
2022-08-02T15:56:04.065Z,3.28
2022-08-02T16:01:04.280Z,1.25
2022-08-02T16:06:10.110Z,2.33
2022-08-02T16:11:13.643Z,1.73
2022-08-02T16:16:17.256Z,3.10
2022-08-02T16:21:24.612Z,3.00
2022-08-02T16:26:29.780Z,3.58
2022-08-02T16:31:33.373Z,4.05
2022-08-02T16:36:38.455Z,1.90
2022-08-02T16:41:50.402Z,1.33
2022-08-02T16:46:55.849Z,3.33
2022-08-02T16:52:00.653Z,1.35
2022-08-02T16:57:05.060Z,2.22
2022-08-02T17:02:11.595Z,1.77
2022-08-02T17:08:07.617Z,2.70
2022-08-02T17:12:46.171Z,1.48
2022-08-02T17:17:54.998Z,3.00
2022-08-02T17:23:00.511Z,1.00
2022-08-02T17:28:05.094Z,2.50
2022-08-02T17:33:13.114Z,2.42
2022-08-02T17:38:26.528Z,2.33
2022-08-02T17:43:30.695Z,3.03
2022-08-02T17:48:50.075Z,2.47
2022-08-02T17:53:54.851Z,6.32
2022-08-02T17:59:12.203Z,2.70
2022-08-02T18:04:26.945Z,5.90
2022-08-02T18:09:34.672Z,2.35
2022-08-02T18:14:46.183Z,2.45
2022-08-02T18:19:57.497Z,4.07
2022-08-02T18:25:09.775Z,4.18
2022-08-02T18:30:14.111Z,3.47
2022-08-02T18:35:25.690Z,5.93
2022-08-02T18:40:34.917Z,5.72
2022-08-02T18:46:04.815Z,3.40
2022-08-02T18:51:02.652Z,5.03
2022-08-02T18:56:08.231Z,6.30
2022-08-02T19:01:21.607Z,7.05
2022-08-02T19:06:34.802Z,5.97
2022-08-02T19:11:40.864Z,5.68
2022-08-02T19:16:45.213Z,8.18
2022-08-02T19:22:18.452Z,4.25
2022-08-02T19:27:15.330Z,3.95
2022-08-02T19:32:40.820Z,4.30
2022-08-02T19:37:43.151Z,3.88
2022-08-02T19:44:20.975Z,3.80
2022-08-02T19:48:14.571Z,4.03
2022-08-02T19:53:21.489Z,4.28
2022-08-02T19:58:28.236Z,5.32
2022-08-02T20:03:51.695Z,4.63
2022-08-02T20:08:58.928Z,4.85
2022-08-02T20:14:04.937Z,3.53
2022-08-02T20:19:09.016Z,7.32
2022-08-02T20:24:12.649Z,7.43
2022-08-02T20:29:42.912Z,4.47
2022-08-02T20:34:42.429Z,3.00
2022-08-02T20:39:48.799Z,3.63
2022-08-02T20:44:55.070Z,5.88
2022-08-02T20:50:17.056Z,8.55
2022-08-02T20:55:20.795Z,5.63
2022-08-02T21:00:27.287Z,6.78
2022-08-02T21:05:54.693Z,5.95
2022-08-02T21:10:55.768Z,4.97
2022-08-02T21:16:08.321Z,4.95
2022-08-02T21:26:28.406Z,6.88
2022-08-02T21:31:37.930Z,7.57
2022-08-02T21:36:45.511Z,6.78
2022-08-02T21:41:49.803Z,7.55
2022-08-02T21:46:56.201Z,8.50
2022-08-02T21:51:59.546Z,7.57
2022-08-02T21:57:04.046Z,7.22
2022-08-02T22:02:09.058Z,5.18
2022-08-02T22:07:12.962Z,6.05
2022-08-02T22:12:19.366Z,7.05
2022-08-02T22:17:52.141Z,5.47
2022-08-02T22:22:50.756Z,7.30
2022-08-02T22:28:38.756Z,6.20
2022-08-02T22:34:00.763Z,4.47
2022-08-02T22:39:19.504Z,5.13
2022-08-02T22:44:23.710Z,5.93
2022-08-02T22:49:39.092Z,5.45
2022-08-02T22:54:49.307Z,4.75
2022-08-02T22:59:54.387Z,6.47
2022-08-02T23:04:59.186Z,5.82
2022-08-02T23:10:04.673Z,5.25
2022-08-02T23:15:09.261Z,5.22
2022-08-02T23:20:14.885Z,4.10
2022-08-02T23:25:18.481Z,5.65
2022-08-02T23:30:22.300Z,8.55
2022-08-02T23:35:28.041Z,7.28
2022-08-02T23:40:40.055Z,6.90
2022-08-02T23:45:46.065Z,5.57
2022-08-02T23:50:51.494Z,7.05
2022-08-02T23:55:55.125Z,5.65
